Strona główna
METAR-TAF:

METAR-TAF

Lotnisko :

Port lotniczy Quebéc-Jean Lesage

Québec, Quebec, Kanada

Szerokość geograficzna: 46-48N, Długość geograficzna: 071-23W, wysokość: 70 m

Aktualna obserwacja pogody

Raport powstał 23 minut temu, godzina 13:00 UTC
Wiatr 4 kt od wschodnio-północny wschód
Temperatura 4°C
Wilgotność 60%
Ciśnienie 1039 hPa
Widzialność: 48.3 km
Mało chmury na wysokości 4000 ft

METAR: CYQB 241300Z 06004KT 30SM FEW040 04/M03 A3068 RMK SC1 SC TR SLP393

czas: 09:23 (13:23 UTC)

Prognoza

Raport powstał 1 godzina i 45 minut temu, godzina 11:38 UTC
Prognoza ważna od 24 godzina 12 UTC do 25 godzina 12 UTC
Wiatr 5 kt od północno-północny wschód
Widzialność: 10 km
bezchmurnie
Stopniowe zmiany
od 24 godzina 15 UTC do 24 godzina 17 UTC
Wiatr 10 kt od wschód
Od 25 godzina 0000 UTC
Wiatr 10 kt od wschód
Widzialność: 10 km
Rozproszone chmury na wysokości 5000 ft

TAF: CYQB 241138Z 2412/2512 02005KT P6SM SKC BECMG 2415/2417 09010KT FM250000 09010KT P6SM SCT050 RMK NXT FCST BY 241800Z

Obserwacja i prognoza pogody dla ponad 4000 lotnisk (raport METAR i TAF).

Dostępne stacje oznaczono żółtymi i czerwonymi punktami na mapie.

Najedź kursorem aby zobaczyć nazwę stacji.

Kliknij aby zobaczyć obserwacje i prognozy pogody.

Aby zmienić mapę: kliknij na zielony przycisk z czarnym krzyżykiem, aby powiększyć; na zielony przycisk z myślnikiem, aby pomniejszyć; na zielone strzałki, aby przejść do map sąsiednich.


METAR-TAF: